sensor_id;sensor_type;location;lat;lon;timestamp;pressure;altitude;pressure_sealevel;temperature;humidity
6899;BME280;3488;42.616;23.350;2022-12-20T00:00:28;61881.25;;;-1.13;100.00
6899;BME280;3488;42.616;23.350;2022-12-20T00:02:56;61886.78;;;-1.12;100.00
6899;BME280;3488;42.616;23.350;2022-12-20T00:05:24;61880.63;;;-1.19;100.00
6899;BME280;3488;42.616;23.350;2022-12-20T00:07:51;61872.56;;;-1.22;100.00
6899;BME280;3488;42.616;23.350;2022-12-20T00:10:18;61873.53;;;-1.23;100.00
6899;BME280;3488;42.616;23.350;2022-12-20T00:12:45;61873.91;;;-1.28;100.00
6899;BME280;3488;42.616;23.350;2022-12-20T00:15:12;61885.63;;;-1.19;100.00
6899;BME280;3488;42.616;23.350;2022-12-20T00:17:38;61876.06;;;-1.21;100.00
6899;BME280;3488;42.616;23.350;2022-12-20T00:20:08;61868.91;;;-1.28;100.00
6899;BME280;3488;42.616;23.350;2022-12-20T00:22:36;61864.75;;;-1.34;100.00
6899;BME280;3488;42.616;23.350;2022-12-20T00:25:04;61848.44;;;-1.48;100.00
6899;BME280;3488;42.616;23.350;2022-12-20T00:27:32;61862.13;;;-1.39;100.00
6899;BME280;3488;42.616;23.350;2022-12-20T00:29:59;61830.53;;;-1.65;100.00
6899;BME280;3488;42.616;23.350;2022-12-20T00:32:26;61841.22;;;-1.57;100.00
6899;BME280;3488;42.616;23.350;2022-12-20T00:34:53;61839.22;;;-1.57;100.00
6899;BME280;3488;42.616;23.350;2022-12-20T00:37:21;61844.31;;;-1.54;100.00
6899;BME280;3488;42.616;23.350;2022-12-20T00:39:48;61838.16;;;-1.60;100.00
6899;BME280;3488;42.616;23.350;2022-12-20T00:42:15;61842.66;;;-1.61;100.00
6899;BME280;3488;42.616;23.350;2022-12-20T00:44:42;61827.47;;;-1.68;100.00
6899;BME280;3488;42.616;23.350;2022-12-20T00:47:09;61826.50;;;-1.67;100.00
6899;BME280;3488;42.616;23.350;2022-12-20T00:49:36;61809.53;;;-1.88;100.00
6899;BME280;3488;42.616;23.350;2022-12-20T00:52:03;61798.78;;;-1.99;100.00
6899;BME280;3488;42.616;23.350;2022-12-20T00:54:33;61795.25;;;-2.00;100.00
6899;BME280;3488;42.616;23.350;2022-12-20T00:57:00;61782.41;;;-2.15;100.00
6899;BME280;3488;42.616;23.350;2022-12-20T00:59:26;61793.06;;;-2.07;100.00
6899;BME280;3488;42.616;23.350;2022-12-20T01:01:53;61782.97;;;-2.12;100.00
6899;BME280;3488;42.616;23.350;2022-12-20T01:04:21;61786.50;;;-2.11;100.00
6899;BME280;3488;42.616;23.350;2022-12-20T01:06:50;61780.38;;;-2.17;100.00
6899;BME280;3488;42.616;23.350;2022-12-20T01:09:17;61771.31;;;-2.21;100.00
6899;BME280;3488;42.616;23.350;2022-12-20T01:11:46;61769.69;;;-2.25;100.00
6899;BME280;3488;42.616;23.350;2022-12-20T01:14:14;61772.06;;;-2.30;100.00
6899;BME280;3488;42.616;23.350;2022-12-20T01:16:42;61755.38;;;-2.39;100.00
6899;BME280;3488;42.616;23.350;2022-12-20T01:19:10;61761.78;;;-2.43;100.00
6899;BME280;3488;42.616;23.350;2022-12-20T01:21:38;61743.69;;;-2.48;100.00
6899;BME280;3488;42.616;23.350;2022-12-20T01:24:09;61739.53;;;-2.55;100.00
6899;BME280;3488;42.616;23.350;2022-12-20T01:26:36;61746.56;;;-2.53;100.00
6899;BME280;3488;42.616;23.350;2022-12-20T01:29:05;61744.06;;;-2.53;100.00
6899;BME280;3488;42.616;23.350;2022-12-20T01:31:31;61743.56;;;-2.53;100.00
6899;BME280;3488;42.616;23.350;2022-12-20T01:33:59;61744.97;;;-2.57;100.00
6899;BME280;3488;42.616;23.350;2022-12-20T01:36:28;61731.81;;;-2.65;100.00
6899;BME280;3488;42.616;23.350;2022-12-20T01:38:56;61738.25;;;-2.66;100.00
6899;BME280;3488;42.616;23.350;2022-12-20T01:41:23;61720.75;;;-2.68;100.00
6899;BME280;3488;42.616;23.350;2022-12-20T01:43:51;61737.50;;;-2.57;100.00
6899;BME280;3488;42.616;23.350;2022-12-20T01:46:22;61722.69;;;-2.71;100.00
6899;BME280;3488;42.616;23.350;2022-12-20T01:48:53;61724.13;;;-2.72;100.00
6899;BME280;3488;42.616;23.350;2022-12-20T01:51:22;61733.91;;;-2.60;100.00
6899;BME280;3488;42.616;23.350;2022-12-20T01:53:54;61739.84;;;-2.62;100.00
6899;BME280;3488;42.616;23.350;2022-12-20T01:56:22;61726.19;;;-2.70;100.00
6899;BME280;3488;42.616;23.350;2022-12-20T01:58:51;61731.69;;;-2.70;100.00
6899;BME280;3488;42.616;23.350;2022-12-20T02:01:22;61713.88;;;-2.85;100.00
6899;BME280;3488;42.616;23.350;2022-12-20T02:03:50;61726.19;;;-2.70;100.00
6899;BME280;3488;42.616;23.350;2022-12-20T02:06:20;61731.75;;;-2.67;100.00
6899;BME280;3488;42.616;23.350;2022-12-20T02:08:50;61710.47;;;-2.81;100.00
6899;BME280;3488;42.616;23.350;2022-12-20T02:11:32;61725.16;;;-2.71;100.00
6899;BME280;3488;42.616;23.350;2022-12-20T02:14:10;61718.59;;;-2.75;100.00
6899;BME280;3488;42.616;23.350;2022-12-20T02:16:45;61718.50;;;-2.78;100.00
6899;BME280;3488;42.616;23.350;2022-12-20T02:19:35;61708.44;;;-2.83;100.00
6899;BME280;3488;42.616;23.350;2022-12-20T02:22:16;61702.69;;;-2.93;100.00
6899;BME280;3488;42.616;23.350;2022-12-20T02:25:13;61715.84;;;-2.85;100.00
6899;BME280;3488;42.616;23.350;2022-12-20T02:27:57;61706.25;;;-2.90;100.00
6899;BME280;3488;42.616;23.350;2022-12-20T02:30:31;61705.63;;;-2.95;100.00
6899;BME280;3488;42.616;23.350;2022-12-20T02:33:02;61695.03;;;-3.01;100.00
6899;BME280;3488;42.616;23.350;2022-12-20T02:35:31;61686.84;;;-3.09;100.00
6899;BME280;3488;42.616;23.350;2022-12-20T02:38:01;61700.06;;;-2.98;100.00
6899;BME280;3488;42.616;23.350;2022-12-20T02:40:31;61702.22;;;-2.91;100.00
6899;BME280;3488;42.616;23.350;2022-12-20T02:43:02;61697.56;;;-2.98;100.00
6899;BME280;3488;42.616;23.350;2022-12-20T02:45:54;61690.28;;;-3.10;100.00
6899;BME280;3488;42.616;23.350;2022-12-20T02:48:22;61675.66;;;-3.17;100.00
6899;BME280;3488;42.616;23.350;2022-12-20T02:50:53;61671.06;;;-3.22;100.00
6899;BME280;3488;42.616;23.350;2022-12-20T02:53:22;61671.00;;;-3.24;100.00
6899;BME280;3488;42.616;23.350;2022-12-20T02:55:52;61670.00;;;-3.25;100.00
6899;BME280;3488;42.616;23.350;2022-12-20T02:58:28;61673.00;;;-3.25;100.00
6899;BME280;3488;42.616;23.350;2022-12-20T03:01:06;61658.31;;;-3.34;100.00
6899;BME280;3488;42.616;23.350;2022-12-20T03:03:34;61650.16;;;-3.42;100.00
6899;BME280;3488;42.616;23.350;2022-12-20T03:06:02;61645.56;;;-3.47;100.00
6899;BME280;3488;42.616;23.350;2022-12-20T03:08:29;61647.97;;;-3.49;100.00
6899;BME280;3488;42.616;23.350;2022-12-20T03:10:56;61646.13;;;-3.44;100.00
6899;BME280;3488;42.616;23.350;2022-12-20T03:13:24;61647.53;;;-3.47;100.00
6899;BME280;3488;42.616;23.350;2022-12-20T03:15:51;61648.53;;;-3.46;100.00
6899;BME280;3488;42.616;23.350;2022-12-20T03:18:20;61644.91;;;-3.53;100.00
6899;BME280;3488;42.616;23.350;2022-12-20T03:20:46;61639.84;;;-3.55;100.00
6899;BME280;3488;42.616;23.350;2022-12-20T03:23:13;61630.22;;;-3.62;100.00
6899;BME280;3488;42.616;23.350;2022-12-20T03:25:40;61622.50;;;-3.72;100.00
6899;BME280;3488;42.616;23.350;2022-12-20T03:28:08;61624.47;;;-3.73;100.00
6899;BME280;3488;42.616;23.350;2022-12-20T03:30:35;61609.81;;;-3.82;100.00
6899;BME280;3488;42.616;23.350;2022-12-20T03:33:02;61620.91;;;-3.76;100.00
6899;BME280;3488;42.616;23.350;2022-12-20T03:35:31;61627.34;;;-3.77;100.00
6899;BME280;3488;42.616;23.350;2022-12-20T03:37:58;61620.47;;;-3.74;100.00
6899;BME280;3488;42.616;23.350;2022-12-20T03:40:25;61613.44;;;-3.76;100.00
6899;BME280;3488;42.616;23.350;2022-12-20T03:42:52;61621.53;;;-3.71;100.00
6899;BME280;3488;42.616;23.350;2022-12-20T03:45:19;61623.91;;;-3.76;100.00
6899;BME280;3488;42.616;23.350;2022-12-20T03:47:46;61625.44;;;-3.74;100.00
6899;BME280;3488;42.616;23.350;2022-12-20T03:50:13;61618.38;;;-3.79;100.00
6899;BME280;3488;42.616;23.350;2022-12-20T03:52:42;61616.31;;;-3.81;100.00
6899;BME280;3488;42.616;23.350;2022-12-20T03:55:09;61628.44;;;-3.74;100.00
6899;BME280;3488;42.616;23.350;2022-12-20T03:57:37;61621.06;;;-3.71;100.00
6899;BME280;3488;42.616;23.350;2022-12-20T04:00:05;61614.91;;;-3.77;100.00
6899;BME280;3488;42.616;23.350;2022-12-20T04:02:32;61623.91;;;-3.76;100.00
6899;BME280;3488;42.616;23.350;2022-12-20T04:04:59;61619.88;;;-3.77;100.00
6899;BME280;3488;42.616;23.350;2022-12-20T04:07:26;61610.56;;;-3.91;100.00
6899;BME280;3488;42.616;23.350;2022-12-20T04:09:55;61618.38;;;-3.79;100.00
6899;BME280;3488;42.616;23.350;2022-12-20T04:12:22;61600.09;;;-3.92;100.00
6899;BME280;3488;42.616;23.350;2022-12-20T04:14:48;61603.56;;;-3.93;100.00
6899;BME280;3488;42.616;23.350;2022-12-20T04:17:15;61597.44;;;-3.99;100.00
6899;BME280;3488;42.616;23.350;2022-12-20T04:19:43;61593.72;;;-4.08;100.00
6899;BME280;3488;42.616;23.350;2022-12-20T04:22:10;61588.94;;;-4.00;100.00
6899;BME280;3488;42.616;23.350;2022-12-20T04:24:37;61603.56;;;-3.93;100.00
6899;BME280;3488;42.616;23.350;2022-12-20T04:27:05;61595.97;;;-3.98;100.00
6899;BME280;3488;42.616;23.350;2022-12-20T04:29:32;61565.41;;;-4.26;100.00
6899;BME280;3488;42.616;23.350;2022-12-20T04:31:59;61576.38;;;-4.25;100.00
6899;BME280;3488;42.616;23.350;2022-12-20T04:34:26;61557.38;;;-4.29;100.00
6899;BME280;3488;42.616;23.350;2022-12-20T04:36:53;61583.59;;;-4.15;100.00
6899;BME280;3488;42.616;23.350;2022-12-20T04:39:20;61582.56;;;-4.16;100.00
6899;BME280;3488;42.616;23.350;2022-12-20T04:41:47;61572.56;;;-4.19;100.00
6899;BME280;3488;42.616;23.350;2022-12-20T04:44:16;61582.69;;;-4.11;100.00
6899;BME280;3488;42.616;23.350;2022-12-20T04:46:43;61584.75;;;-4.09;100.00
6899;BME280;3488;42.616;23.350;2022-12-20T04:49:10;61567.97;;;-4.23;100.00
6899;BME280;3488;42.616;23.350;2022-12-20T04:51:37;61568.78;;;-4.30;100.00
6899;BME280;3488;42.616;23.350;2022-12-20T04:54:04;61572.44;;;-4.24;100.00
6899;BME280;3488;42.616;23.350;2022-12-20T04:56:30;61582.50;;;-4.19;100.00
6899;BME280;3488;42.616;23.350;2022-12-20T04:58:58;61582.19;;;-4.12;100.00
6899;BME280;3488;42.616;23.350;2022-12-20T05:01:28;61564.28;;;-4.32;100.00
6899;BME280;3488;42.616;23.350;2022-12-20T05:03:55;61568.84;;;-4.27;100.00
6899;BME280;3488;42.616;23.350;2022-12-20T05:06:22;61572.38;;;-4.26;100.00
6899;BME280;3488;42.616;23.350;2022-12-20T05:08:49;61570.38;;;-4.26;100.00
6899;BME280;3488;42.616;23.350;2022-12-20T05:11:16;61565.50;;;-4.23;100.00
6899;BME280;3488;42.616;23.350;2022-12-20T05:13:43;61579.97;;;-4.21;100.00
6899;BME280;3488;42.616;23.350;2022-12-20T05:16:10;61568.28;;;-4.30;100.00
6899;BME280;3488;42.616;23.350;2022-12-20T05:18:38;61563.53;;;-4.23;100.00
6899;BME280;3488;42.616;23.350;2022-12-20T05:21:05;61572.56;;;-4.19;100.00
6899;BME280;3488;42.616;23.350;2022-12-20T05:23:50;61577.00;;;-4.19;100.00
6899;BME280;3488;42.616;23.350;2022-12-20T05:26:36;61560.13;;;-4.38;100.00
6899;BME280;3488;42.616;23.350;2022-12-20T05:29:03;61568.84;;;-4.27;100.00
6899;BME280;3488;42.616;23.350;2022-12-20T05:31:31;61571.41;;;-4.25;100.00
6899;BME280;3488;42.616;23.350;2022-12-20T05:33:59;61568.53;;;-4.20;100.00
6899;BME280;3488;42.616;23.350;2022-12-20T05:36:27;61572.13;;;-4.17;100.00
6899;BME280;3488;42.616;23.350;2022-12-20T05:38:54;61581.19;;;-4.13;100.00
6899;BME280;3488;42.616;23.350;2022-12-20T05:41:21;61572.00;;;-4.22;100.00
6899;BME280;3488;42.616;23.350;2022-12-20T05:43:48;61557.31;;;-4.31;100.00
6899;BME280;3488;42.616;23.350;2022-12-20T05:46:15;61572.13;;;-4.17;100.00
6899;BME280;3488;42.616;23.350;2022-12-20T05:48:42;61586.16;;;-4.13;100.00
6899;BME280;3488;42.616;23.350;2022-12-20T05:51:11;61589.84;;;-4.04;100.00
6899;BME280;3488;42.616;23.350;2022-12-20T05:53:38;61580.22;;;-4.11;100.00
6899;BME280;3488;42.616;23.350;2022-12-20T05:56:06;61598.00;;;-3.96;100.00
6899;BME280;3488;42.616;23.350;2022-12-20T05:58:33;61594.44;;;-4.00;100.00
6899;BME280;3488;42.616;23.350;2022-12-20T06:01:00;61609.56;;;-3.92;100.00
6899;BME280;3488;42.616;23.350;2022-12-20T06:03:27;61594.50;;;-3.97;100.00
6899;BME280;3488;42.616;23.350;2022-12-20T06:05:55;61609.59;;;-3.90;100.00
6899;BME280;3488;42.616;23.350;2022-12-20T06:08:24;61603.19;;;-3.89;100.00
6899;BME280;3488;42.616;23.350;2022-12-20T06:10:52;61608.22;;;-3.86;100.00
6899;BME280;3488;42.616;23.350;2022-12-20T06:13:19;61607.78;;;-3.84;100.00
6899;BME280;3488;42.616;23.350;2022-12-20T06:15:47;61613.91;;;-3.78;100.00
6899;BME280;3488;42.616;23.350;2022-12-20T06:18:14;61611.34;;;-3.81;100.00
6899;BME280;3488;42.616;23.350;2022-12-20T06:20:41;61628.06;;;-3.69;100.00
6899;BME280;3488;42.616;23.350;2022-12-20T06:23:08;61622.94;;;-3.74;100.00
6899;BME280;3488;42.616;23.350;2022-12-20T06:25:36;61625.69;;;-3.64;100.00
6899;BME280;3488;42.616;23.350;2022-12-20T06:28:04;61636.50;;;-3.51;100.00
6899;BME280;3488;42.616;23.350;2022-12-20T06:30:32;61650.06;;;-3.45;100.00
6899;BME280;3488;42.616;23.350;2022-12-20T06:32:59;61642.47;;;-3.50;100.00
6899;BME280;3488;42.616;23.350;2022-12-20T06:35:26;61656.78;;;-3.36;100.00
6899;BME280;3488;42.616;23.350;2022-12-20T06:37:54;61661.81;;;-3.33;100.00
6899;BME280;3488;42.616;23.350;2022-12-20T06:40:21;61659.34;;;-3.33;100.00
6899;BME280;3488;42.616;23.350;2022-12-20T06:42:50;61670.94;;;-3.27;100.00
6899;BME280;3488;42.616;23.350;2022-12-20T06:45:16;61676.63;;;-3.19;100.00
6899;BME280;3488;42.616;23.350;2022-12-20T06:47:44;61680.66;;;-3.17;100.00
6899;BME280;3488;42.616;23.350;2022-12-20T06:50:11;61682.25;;;-3.13;100.00
6899;BME280;3488;42.616;23.350;2022-12-20T06:52:38;61683.78;;;-3.12;100.00
6899;BME280;3488;42.616;23.350;2022-12-20T06:55:06;61695.47;;;-3.03;100.00
6899;BME280;3488;42.616;23.350;2022-12-20T06:57:33;61701.09;;;-2.97;100.00
6899;BME280;3488;42.616;23.350;2022-12-20T07:00:03;61707.81;;;-2.88;100.00
6899;BME280;3488;42.616;23.350;2022-12-20T07:02:30;61707.34;;;-2.86;100.00
6899;BME280;3488;42.616;23.350;2022-12-20T07:04:57;61715.53;;;-2.78;100.00
6899;BME280;3488;42.616;23.350;2022-12-20T07:07:24;61721.16;;;-2.73;100.00
6899;BME280;3488;42.616;23.350;2022-12-20T07:09:51;61721.72;;;-2.70;100.00
6899;BME280;3488;42.616;23.350;2022-12-20T07:12:18;61752.13;;;-2.50;100.00
6899;BME280;3488;42.616;23.350;2022-12-20T07:14:45;61771.16;;;-2.26;100.00
6899;BME280;3488;42.616;23.350;2022-12-20T07:17:13;61813.03;;;-1.87;98.71
6899;BME280;3488;42.616;23.350;2022-12-20T07:19:41;61827.53;;;-1.66;95.48
6899;BME280;3488;42.616;23.350;2022-12-20T07:22:08;61841.84;;;-1.52;93.50
6899;BME280;3488;42.616;23.350;2022-12-20T07:24:35;61854.59;;;-1.42;91.88
6899;BME280;3488;42.616;23.350;2022-12-20T07:27:02;61854.59;;;-1.42;90.27
6899;BME280;3488;42.616;23.350;2022-12-20T07:29:29;61863.75;;;-1.35;89.46
6899;BME280;3488;42.616;23.350;2022-12-20T07:31:56;61856.94;;;-1.47;88.52
6899;BME280;3488;42.616;23.350;2022-12-20T07:34:24;61872.81;;;-1.31;88.89
6899;BME280;3488;42.616;23.350;2022-12-20T07:36:51;61867.91;;;-1.29;89.35
6899;BME280;3488;42.616;23.350;2022-12-20T07:39:19;61874.94;;;-1.27;89.81
6899;BME280;3488;42.616;23.350;2022-12-20T07:41:46;61874.41;;;-1.27;89.18
6899;BME280;3488;42.616;23.350;2022-12-20T07:44:13;61878.06;;;-1.21;89.90
6899;BME280;3488;42.616;23.350;2022-12-20T07:46:41;61871.06;;;-1.21;89.65
6899;BME280;3488;42.616;23.350;2022-12-20T07:49:08;61879.22;;;-1.15;89.24
6899;BME280;3488;42.616;23.350;2022-12-20T07:51:40;61899.50;;;-1.02;88.45
6899;BME280;3488;42.616;23.350;2022-12-20T07:54:11;61905.00;;;-1.02;88.31
6899;BME280;3488;42.616;23.350;2022-12-20T07:56:43;61906.78;;;-0.90;87.99
6899;BME280;3488;42.616;23.350;2022-12-20T07:59:13;61921.47;;;-0.83;87.74
6899;BME280;3488;42.616;23.350;2022-12-20T08:01:42;61926.00;;;-0.81;87.09
6899;BME280;3488;42.616;23.350;2022-12-20T08:04:15;61942.06;;;-0.58;86.78
6899;BME280;3488;42.616;23.350;2022-12-20T08:06:45;61938.47;;;-0.62;85.90
6899;BME280;3488;42.616;23.350;2022-12-20T08:09:14;61936.94;;;-0.63;85.91
6899;BME280;3488;42.616;23.350;2022-12-20T08:11:44;61953.84;;;-0.47;86.42
6899;BME280;3488;42.616;23.350;2022-12-20T08:14:13;61958.97;;;-0.42;86.03
6899;BME280;3488;42.616;23.350;2022-12-20T08:16:42;61973.25;;;-0.30;86.16
6899;BME280;3488;42.616;23.350;2022-12-20T08:19:09;61980.53;;;-0.18;85.59
6899;BME280;3488;42.616;23.350;2022-12-20T08:21:36;61989.16;;;-0.12;84.58
6899;BME280;3488;42.616;23.350;2022-12-20T08:24:05;61999.88;;;-0.04;84.24
6899;BME280;3488;42.616;23.350;2022-12-20T08:26:36;61996.75;;;-0.10;82.43
6899;BME280;3488;42.616;23.350;2022-12-20T08:29:03;62002.56;;;0.03;82.01
6899;BME280;3488;42.616;23.350;2022-12-20T08:31:30;61994.34;;;-0.05;81.61
6899;BME280;3488;42.616;23.350;2022-12-20T08:33:57;62010.66;;;0.07;81.53
6899;BME280;3488;42.616;23.350;2022-12-20T08:36:24;61999.94;;;-0.02;80.67
6899;BME280;3488;42.616;23.350;2022-12-20T08:38:51;62004.56;;;0.03;80.70
6899;BME280;3488;42.616;23.350;2022-12-20T08:41:19;61989.69;;;-0.12;81.06
6899;BME280;3488;42.616;23.350;2022-12-20T08:43:47;62014.34;;;0.15;81.29
6899;BME280;3488;42.616;23.350;2022-12-20T08:46:13;62021.53;;;0.22;80.17
6899;BME280;3488;42.616;23.350;2022-12-20T08:48:40;62024.53;;;0.23;78.58
6899;BME280;3488;42.616;23.350;2022-12-20T08:51:09;62044.13;;;0.47;78.81
6899;BME280;3488;42.616;23.350;2022-12-20T08:53:37;62056.31;;;0.54;77.71
6899;BME280;3488;42.616;23.350;2022-12-20T08:56:06;62056.91;;;0.57;78.03
6899;BME280;3488;42.616;23.350;2022-12-20T08:58:36;62056.91;;;0.57;77.12
6899;BME280;3488;42.616;23.350;2022-12-20T09:01:06;62075.28;;;0.72;76.59
6899;BME280;3488;42.616;23.350;2022-12-20T09:03:35;62070.16;;;0.67;75.58
6899;BME280;3488;42.616;23.350;2022-12-20T09:06:05;62067.66;;;0.67;74.62
6899;BME280;3488;42.616;23.350;2022-12-20T09:08:32;62087.47;;;0.79;73.55
6899;BME280;3488;42.616;23.350;2022-12-20T09:11:03;62081.44;;;0.78;73.78
6899;BME280;3488;42.616;23.350;2022-12-20T09:13:30;62077.91;;;0.77;75.36
6899;BME280;3488;42.616;23.350;2022-12-20T09:16:00;62091.63;;;0.86;76.10
6899;BME280;3488;42.616;23.350;2022-12-20T09:18:29;62083.41;;;0.78;73.76
6899;BME280;3488;42.616;23.350;2022-12-20T09:20:58;62073.28;;;0.73;75.87
6899;BME280;3488;42.616;23.350;2022-12-20T09:23:26;62076.31;;;0.73;75.08
6899;BME280;3488;42.616;23.350;2022-12-20T09:25:54;62081.56;;;0.83;73.98
6899;BME280;3488;42.616;23.350;2022-12-20T09:28:21;62082.97;;;0.80;74.81
6899;BME280;3488;42.616;23.350;2022-12-20T09:30:48;62092.66;;;0.87;74.51
6899;BME280;3488;42.616;23.350;2022-12-20T09:33:17;62079.44;;;0.79;74.75
6899;BME280;3488;42.616;23.350;2022-12-20T09:35:45;62075.34;;;0.75;75.43
6899;BME280;3488;42.616;23.350;2022-12-20T09:38:12;62084.56;;;0.84;75.49
6899;BME280;3488;42.616;23.350;2022-12-20T09:40:43;62080.91;;;0.78;75.20
6899;BME280;3488;42.616;23.350;2022-12-20T09:43:11;62107.03;;;1.01;76.60
6899;BME280;3488;42.616;23.350;2022-12-20T09:45:39;62121.94;;;1.18;75.09
6899;BME280;3488;42.616;23.350;2022-12-20T09:48:09;62134.16;;;1.25;72.91
6899;BME280;3488;42.616;23.350;2022-12-20T09:50:52;62117.72;;;1.09;71.74
6899;BME280;3488;42.616;23.350;2022-12-20T09:53:27;62071.69;;;0.69;73.47
6899;BME280;3488;42.616;23.350;2022-12-20T09:56:04;62090.66;;;0.87;74.54
6899;BME280;3488;42.616;23.350;2022-12-20T09:58:41;62121.38;;;1.15;73.75
6899;BME280;3488;42.616;23.350;2022-12-20T10:01:16;62134.16;;;1.25;71.54
6899;BME280;3488;42.616;23.350;2022-12-20T10:03:44;62128.06;;;1.22;70.11
6899;BME280;3488;42.616;23.350;2022-12-20T10:06:20;62125.09;;;1.24;71.88
6899;BME280;3488;42.616;23.350;2022-12-20T10:08:55;62147.25;;;1.50;70.55
6899;BME280;3488;42.616;23.350;2022-12-20T10:11:42;62190.09;;;1.80;68.62
6899;BME280;3488;42.616;23.350;2022-12-20T10:14:26;62166.06;;;1.61;67.24
6899;BME280;3488;42.616;23.350;2022-12-20T10:17:02;62167.13;;;1.62;66.71
6899;BME280;3488;42.616;23.350;2022-12-20T10:19:48;62179.38;;;1.72;67.24
6899;BME280;3488;42.616;23.350;2022-12-20T10:22:24;62192.25;;;1.87;66.16
6899;BME280;3488;42.616;23.350;2022-12-20T10:24:55;62176.41;;;1.74;65.98
6899;BME280;3488;42.616;23.350;2022-12-20T10:27:24;62230.25;;;2.24;67.16
6899;BME280;3488;42.616;23.350;2022-12-20T10:29:51;62247.72;;;2.41;62.62
6899;BME280;3488;42.616;23.350;2022-12-20T10:32:20;62251.75;;;2.43;59.77
6899;BME280;3488;42.616;23.350;2022-12-20T10:34:53;62257.47;;;2.51;63.21
6899;BME280;3488;42.616;23.350;2022-12-20T10:37:22;62244.16;;;2.40;61.21
6899;BME280;3488;42.616;23.350;2022-12-20T10:39:51;62266.16;;;2.57;62.95
6899;BME280;3488;42.616;23.350;2022-12-20T10:42:25;62237.09;;;2.38;61.49
6899;BME280;3488;42.616;23.350;2022-12-20T10:44:55;62242.63;;;2.38;60.13
6899;BME280;3488;42.616;23.350;2022-12-20T10:47:32;62241.09;;;2.37;59.63
6899;BME280;3488;42.616;23.350;2022-12-20T10:50:12;62259.41;;;2.48;59.24
6899;BME280;3488;42.616;23.350;2022-12-20T10:52:43;62245.19;;;2.41;58.74
6899;BME280;3488;42.616;23.350;2022-12-20T10:55:33;62211.75;;;2.06;59.78
6899;BME280;3488;42.616;23.350;2022-12-20T10:58:03;62217.34;;;2.09;59.17
6899;BME280;3488;42.616;23.350;2022-12-20T11:00:32;62232.34;;;2.28;58.86
6899;BME280;3488;42.616;23.350;2022-12-20T11:03:08;62254.38;;;2.48;57.28
6899;BME280;3488;42.616;23.350;2022-12-20T11:05:37;62260.03;;;2.53;57.50
6899;BME280;3488;42.616;23.350;2022-12-20T11:08:13;62269.84;;;2.65;55.96
6899;BME280;3488;42.616;23.350;2022-12-20T11:10:41;62265.69;;;2.59;56.11
6899;BME280;3488;42.616;23.350;2022-12-20T11:13:20;62278.47;;;2.69;54.96
6899;BME280;3488;42.616;23.350;2022-12-20T11:15:49;62247.19;;;2.41;54.76
6899;BME280;3488;42.616;23.350;2022-12-20T11:18:21;62254.38;;;2.48;55.05
6899;BME280;3488;42.616;23.350;2022-12-20T11:20:57;62261.63;;;2.57;55.03
6899;BME280;3488;42.616;23.350;2022-12-20T11:23:36;62272.38;;;2.65;54.51
6899;BME280;3488;42.616;23.350;2022-12-20T11:26:19;62300.63;;;2.93;54.31
6899;BME280;3488;42.616;23.350;2022-12-20T11:29:01;62322.16;;;3.11;54.16
6899;BME280;3488;42.616;23.350;2022-12-20T11:31:42;62328.94;;;3.23;53.25
6899;BME280;3488;42.616;23.350;2022-12-20T11:34:29;62338.53;;;3.25;53.34
6899;BME280;3488;42.616;23.350;2022-12-20T11:37:19;62308.38;;;3.03;52.86
6899;BME280;3488;42.616;23.350;2022-12-20T11:40:02;62329.44;;;3.23;53.04
6899;BME280;3488;42.616;23.350;2022-12-20T11:42:39;62339.63;;;3.28;51.63
6899;BME280;3488;42.616;23.350;2022-12-20T11:45:17;62309.28;;;2.99;52.05
6899;BME280;3488;42.616;23.350;2022-12-20T11:48:01;62281.56;;;2.72;53.21
6899;BME280;3488;42.616;23.350;2022-12-20T11:50:44;62317.63;;;3.12;52.85
6899;BME280;3488;42.616;23.350;2022-12-20T11:53:19;62324.88;;;3.21;52.12
6899;BME280;3488;42.616;23.350;2022-12-20T11:55:51;62310.84;;;3.00;51.77
6899;BME280;3488;42.616;23.350;2022-12-20T11:58:24;62320.72;;;3.15;52.65
6899;BME280;3488;42.616;23.350;2022-12-20T12:00:55;62355.56;;;3.44;53.48
6899;BME280;3488;42.616;23.350;2022-12-20T12:03:27;62372.63;;;3.66;52.00
6899;BME280;3488;42.616;23.350;2022-12-20T12:05:59;62382.91;;;3.76;51.31
6899;BME280;3488;42.616;23.350;2022-12-20T12:08:35;62376.69;;;3.67;50.40
6899;BME280;3488;42.616;23.350;2022-12-20T12:11:12;62366.91;;;3.58;50.53
6899;BME280;3488;42.616;23.350;2022-12-20T12:13:42;62365.38;;;3.56;51.01
6899;BME280;3488;42.616;23.350;2022-12-20T12:16:13;62372.56;;;3.63;51.85
6899;BME280;3488;42.616;23.350;2022-12-20T12:18:44;62381.38;;;3.74;51.63
6899;BME280;3488;42.616;23.350;2022-12-20T12:21:16;62395.16;;;3.83;51.42
6899;BME280;3488;42.616;23.350;2022-12-20T12:23:55;62403.38;;;3.91;51.24
6899;BME280;3488;42.616;23.350;2022-12-20T12:26:29;62381.84;;;3.72;51.00
6899;BME280;3488;42.616;23.350;2022-12-20T12:28:59;62371.03;;;3.62;51.49
6899;BME280;3488;42.616;23.350;2022-12-20T12:31:31;62377.72;;;3.68;51.33
6899;BME280;3488;42.616;23.350;2022-12-20T12:34:09;62377.16;;;3.65;50.76
6899;BME280;3488;42.616;23.350;2022-12-20T12:40:13;62401.78;;;3.87;51.13
6899;BME280;3488;42.616;23.350;2022-12-20T12:43:07;62411.66;;;4.01;50.74
6899;BME280;3488;42.616;23.350;2022-12-20T12:45:42;62413.66;;;4.01;49.98
6899;BME280;3488;42.616;23.350;2022-12-20T12:48:14;62360.31;;;3.53;51.15
6899;BME280;3488;42.616;23.350;2022-12-20T12:50:45;62364.41;;;3.58;50.56
6899;BME280;3488;42.616;23.350;2022-12-20T12:53:15;62351.66;;;3.50;51.54
6899;BME280;3488;42.616;23.350;2022-12-20T12:55:45;62385.44;;;3.76;51.56
6899;BME280;3488;42.616;23.350;2022-12-20T12:58:38;62395.72;;;3.86;51.37
6899;BME280;3488;42.616;23.350;2022-12-20T13:01:09;62397.22;;;3.85;51.31
6899;BME280;3488;42.616;23.350;2022-12-20T13:03:43;62402.34;;;3.90;51.41
6899;BME280;3488;42.616;23.350;2022-12-20T13:06:53;62414.63;;;3.99;50.85
6899;BME280;3488;42.616;23.350;2022-12-20T13:09:36;62358.75;;;3.52;50.68
6899;BME280;3488;42.616;23.350;2022-12-20T13:15:50;62362.34;;;3.55;52.09
6899;BME280;3488;42.616;23.350;2022-12-20T13:18:25;62370.53;;;3.61;51.42
6899;BME280;3488;42.616;23.350;2022-12-20T13:21:30;62358.25;;;3.51;50.89
6899;BME280;3488;42.616;23.350;2022-12-20T13:27:26;62351.50;;;3.42;52.28
6899;BME280;3488;42.616;23.350;2022-12-20T13:33:17;62345.84;;;3.37;54.00
6899;BME280;3488;42.616;23.350;2022-12-20T13:38:56;62332.53;;;3.26;53.89
6899;BME280;3488;42.616;23.350;2022-12-20T13:41:31;62326.81;;;3.18;51.93
6899;BME280;3488;42.616;23.350;2022-12-20T13:44:07;62313.94;;;3.03;51.64